地図

経路データ

SID SEASON NUMBER BASIN SUBBASIN NAME ISO_TIME NATURE LAT LON WMO_WIND WMO_PRES WMO_AGENCY TRACK_TYPE DIST2LAND LANDFALL IFLAG USA_AGENCY USA_ATCF_ID USA_LAT USA_LON USA_RECORD USA_STATUS USA_WIND USA_PRES USA_SSHS USA_R34_NE USA_R34_SE USA_R34_SW USA_R34_NW USA_R50_NE USA_R50_SE USA_R50_SW USA_R50_NW USA_R64_NE USA_R64_SE USA_R64_SW USA_R64_NW USA_POCI USA_ROCI USA_RMW USA_EYE TOKYO_LAT TOKYO_LON TOKYO_GRADE TOKYO_WIND TOKYO_PRES TOKYO_R50_DIR TOKYO_R50_LONG TOKYO_R50_SHORT TOKYO_R30_DIR TOKYO_R30_LONG TOKYO_R30_SHORT TOKYO_LAND CMA_LAT CMA_LON CMA_CAT CMA_WIND CMA_PRES HKO_LAT HKO_LON HKO_CAT HKO_WIND HKO_PRES NEWDELHI_LAT NEWDELHI_LON NEWDELHI_GRADE NEWDELHI_WIND NEWDELHI_PRES NEWDELHI_CI NEWDELHI_DP NEWDELHI_POCI REUNION_LAT REUNION_LON REUNION_TYPE REUNION_WIND REUNION_PRES REUNION_TNUM REUNION_CI REUNION_RMW REUNION_R34_NE REUNION_R34_SE REUNION_R34_SW REUNION_R34_NW REUNION_R50_NE REUNION_R50_SE REUNION_R50_SW REUNION_R50_NW REUNION_R64_NE REUNION_R64_SE REUNION_R64_SW REUNION_R64_NW BOM_LAT BOM_LON BOM_TYPE BOM_WIND BOM_PRES BOM_TNUM BOM_CI BOM_RMW BOM_R34_NE BOM_R34_SE BOM_R34_SW BOM_R34_NW BOM_R50_NE BOM_R50_SE BOM_R50_SW BOM_R50_NW BOM_R64_NE BOM_R64_SE BOM_R64_SW BOM_R64_NW BOM_ROCI BOM_POCI BOM_EYE BOM_POS_METHOD BOM_PRES_METHOD NADI_LAT NADI_LON NADI_CAT NADI_WIND NADI_PRES WELLINGTON_LAT WELLINGTON_LON WELLINGTON_WIND WELLINGTON_PRES DS824_LAT DS824_LON DS824_STAGE DS824_WIND DS824_PRES TD9636_LAT TD9636_LON TD9636_STAGE TD9636_WIND TD9636_PRES TD9635_LAT TD9635_LON TD9635_WIND TD9635_PRES TD9635_ROCI NEUMANN_LAT NEUMANN_LON NEUMANN_CLASS NEUMANN_WIND NEUMANN_PRES MLC_LAT MLC_LON MLC_CLASS MLC_WIND MLC_PRES USA_GUST BOM_GUST BOM_GUST_PER REUNION_GUST REUNION_GUST_PER USA_SEAHGT USA_SEARAD_NE USA_SEARAD_SE USA_SEARAD_SW USA_SEARAD_NW STORM_SPEED STORM_DIR
1943296N10137 1943 76 WP MM NOT_NAMED 1943-10-23 00:00:00 NR 10.0000 137.000 main 1172 1052 __________O___ -1 10.0000 137.000 2 23 263
1943296N10137 1943 76 WP MM NOT_NAMED 1943-10-23 03:00:00 NR 9.86617 135.867 main 1052 932 __________P___ -1 9.86617 135.867 2 23 264
1943296N10137 1943 76 WP MM NOT_NAMED 1943-10-23 06:00:00 NR 9.75438 134.727 main 921 801 __________P___ -1 9.75438 134.727 2 23 266
1943296N10137 1943 76 WP MM NOT_NAMED 1943-10-23 09:00:00 NR 9.69045 133.574 main 801 686 __________P___ -1 9.69045 133.574 2 23 269
1943296N10137 1943 76 WP MM NOT_NAMED 1943-10-23 12:00:00 NR 9.70000 132.400 main 676 560 __________O___ -1 9.70000 132.400 2 23 273
1943296N10137 1943 76 WP MM NOT_NAMED 1943-10-23 15:00:00 NR 9.79935 131.206 main 549 437 __________P___ -1 9.79935 131.206 2 23 277
1943296N10137 1943 76 WP MM NOT_NAMED 1943-10-23 18:00:00 NR 9.96824 130.037 main 426 326 __________P___ -1 9.96824 130.037 2 23 280
1943296N10137 1943 76 WP MM NOT_NAMED 1943-10-23 21:00:00 NR 10.1778 128.949 main 316 238 __________P___ -1 10.1778 128.949 2 21 282
1943296N10137 1943 76 WP MM NOT_NAMED 1943-10-24 00:00:00 NR 10.4000 128.000 main 238 169 __________O___ -1 10.4000 128.000 2 17 283
1943296N10137 1943 76 WP MM NOT_NAMED 1943-10-24 03:00:00 NR 10.5623 127.248 main 159 103 __________P___ -1 10.5623 127.248 2 14 284
1943296N10137 1943 76 WP MM NOT_NAMED 1943-10-24 06:00:00 NR 10.7375 126.634 main 93 34 __________P___ -1 10.7375 126.634 2 12 289
1943296N10137 1943 76 WP MM NOT_NAMED 1943-10-24 09:00:00 NR 10.9440 126.104 main 34 0 __________P___ -1 10.9440 126.104 2 11 294
1943296N10137 1943 76 WP MM NOT_NAMED 1943-10-24 12:00:00 NR 11.2000 125.600 main 10 0 __________O___ -1 11.2000 125.600 2 12 301
1943296N10137 1943 76 WP MM NOT_NAMED 1943-10-24 15:00:00 NR 11.5691 125.024 main 0 0 __________P___ -1 11.5691 125.024 2 14 305
1943296N10137 1943 76 WP MM NOT_NAMED 1943-10-24 18:00:00 NR 11.9796 124.464 main 15 15 __________P___ -1 11.9796 124.464 2 14 307
1943296N10137 1943 76 WP MM NOT_NAMED 1943-10-24 21:00:00 NR 12.3754 123.921 main 24 15 __________P___ -1 12.3754 123.921 2 13 305
1943296N10137 1943 76 WP MM NOT_NAMED 1943-10-25 00:00:00 NR 12.7000 123.400 main 22 22 __________O___ -1 12.7000 123.400 2 11 297
1943296N10137 1943 76 WP MM NOT_NAMED 1943-10-25 03:00:00 NR 12.8786 122.903 main 39 22 __________P___ -1 12.8786 122.903 2 10 287
1943296N10137 1943 76 WP MM NOT_NAMED 1943-10-25 06:00:00 NR 12.9819 122.426 main 31 31 __________P___ -1 12.9819 122.426 2 9 280
1943296N10137 1943 76 WP MM NOT_NAMED 1943-10-25 09:00:00 NR 13.0442 121.962 main 54 10 __________P___ -1 13.0442 121.962 2 9 277
1943296N10137 1943 76 WP MM NOT_NAMED 1943-10-25 12:00:00 NR 13.1000 121.500 main 10 0 __________O___ -1 13.1000 121.500 2 9 280
1943296N10137 1943 76 WP MM NOT_NAMED 1943-10-25 15:00:00 NR 13.1999 121.009 main 0 0 __________P___ -1 13.1999 121.009 2 10 282
1943296N10137 1943 76 WP MM NOT_NAMED 1943-10-25 18:00:00 NR 13.3000 120.520 main 0 0 __________P___ -1 13.3000 120.520 2 10 282
1943296N10137 1943 76 WP MM NOT_NAMED 1943-10-25 21:00:00 NR 13.4000 120.046 main 32 32 __________P___ -1 13.4000 120.046 2 9 283
1943296N10137 1943 76 WP MM NOT_NAMED 1943-10-26 00:00:00 NR 13.5000 119.600 main 76 76 __________O___ -1 13.5000 119.600 2 9 284
1943296N10137 1943 76 WP MM NOT_NAMED 1943-10-26 03:00:00 NR 13.6117 119.200 main 121 121 __________P___ -1 13.6117 119.200 2 8 286
1943296N10137 1943 76 WP MM NOT_NAMED 1943-10-26 06:00:00 NR 13.7219 118.828 main 165 165 __________P___ -1 13.7219 118.828 2 7 286
1943296N10137 1943 76 WP MM NOT_NAMED 1943-10-26 09:00:00 NR 13.8211 118.466 main 199 199 __________P___ -1 13.8211 118.466 2 7 284
1943296N10137 1943 76 WP MM NOT_NAMED 1943-10-26 12:00:00 NR 13.9000 118.100 main 237 237 __________O___ -1 13.9000 118.100 2 8 282
1943296N10137 1943 76 WP MM NOT_NAMED 1943-10-26 15:00:00 NR 13.9791 117.687 main 273 273 __________P___ -1 13.9791 117.687 2 8 279
1943296N10137 1943 76 WP MM NOT_NAMED 1943-10-26 18:00:00 NR 14.0326 117.270 main 314 314 __________P___ -1 14.0326 117.270 2 8 275
1943296N10137 1943 76 WP MM NOT_NAMED 1943-10-26 21:00:00 NR 14.0448 116.868 main 356 356 __________P___ -1 14.0448 116.868 2 7 268
1943296N10137 1943 76 WP MM NOT_NAMED 1943-10-27 00:00:00 NR 14.0000 116.500 main 398 398 __________O___ -1 14.0000 116.500 2 7 256
1943296N10137 1943 76 WP MM NOT_NAMED 1943-10-27 03:00:00 NR 13.8741 116.185 main 432 432 __________P___ -1 13.8741 116.185 2 7 242
1943296N10137 1943 76 WP MM NOT_NAMED 1943-10-27 06:00:00 NR 13.6946 115.905 main 469 469 __________P___ -1 13.6946 115.905 2 6 234
1943296N10137 1943 76 WP MM NOT_NAMED 1943-10-27 09:00:00 NR 13.4929 115.647 main 486 480 __________P___ -1 13.4929 115.647 2 6 231
1943296N10137 1943 76 WP MM NOT_NAMED 1943-10-27 12:00:00 NR 13.3000 115.400 main 494 494 __________O___ -1 13.3000 115.400 2 6 233
1943296N10137 1943 76 WP MM NOT_NAMED 1943-10-27 15:00:00 NR 13.1239 115.147 main 513 513 __________P___ -1 13.1239 115.147 2 6 236
1943296N10137 1943 76 WP MM NOT_NAMED 1943-10-27 18:00:00 NR 12.9673 114.900 main 529 521 __________P___ -1 12.9673 114.900 2 6 241
1943296N10137 1943 76 WP MM NOT_NAMED 1943-10-27 21:00:00 NR 12.8521 114.653 main 535 531 __________P___ -1 12.8521 114.653 2 5 251
1943296N10137 1943 76 WP MM NOT_NAMED 1943-10-28 00:00:00 NR 12.8000 114.400 main 531 509 __________O___ -1 12.8000 114.400 2 5 268
1943296N10137 1943 76 WP MM NOT_NAMED 1943-10-28 03:00:00 NR 12.8352 114.137 main 499 477 __________P___ -1 12.8352 114.137 2 5 284
1943296N10137 1943 76 WP MM NOT_NAMED 1943-10-28 06:00:00 NR 12.9324 113.865 main 477 444 __________P___ -1 12.9324 113.865 2 6 293
1943296N10137 1943 76 WP MM NOT_NAMED 1943-10-28 09:00:00 NR 13.0633 113.586 main 445 413 __________P___ -1 13.0633 113.586 2 6 296
1943296N10137 1943 76 WP MM NOT_NAMED 1943-10-28 12:00:00 NR 13.2000 113.300 main 413 381 __________O___ -1 13.2000 113.300 2 6 294
1943296N10137 1943 76 WP MM NOT_NAMED 1943-10-28 15:00:00 NR 13.3199 113.007 main 381 351 __________P___ -1 13.3199 113.007 2 6 291
1943296N10137 1943 76 WP MM NOT_NAMED 1943-10-28 18:00:00 NR 13.4228 112.707 main 351 321 __________P___ -1 13.4228 112.707 2 6 288
1943296N10137 1943 76 WP MM NOT_NAMED 1943-10-28 21:00:00 NR 13.5143 112.405 main 321 292 __________P___ -1 13.5143 112.405 2 6 287
1943296N10137 1943 76 WP MM NOT_NAMED 1943-10-29 00:00:00 NR 13.6000 112.100 main 292 __________O___ -1 13.6000 112.100 2 6 286

デジタル台風データ・検索

IBTrACS Databaseについて

本データベースは、米国NOAAが公開する1842年以降の世界の熱帯低気圧のベストトラックデータアーカイブInternational Best Track Archive for Climate Stewardship (IBTrACS)を、ウェブで閲覧しやすい形式に変換したものです。

最終更新日:2021-12-03